Página principal
METAR-TAF:

METAR-TAF

Aeroportos :

King Cove, Alasca, Estados Unidos

latitude: 55-06-59N, longitude: 162-15-58W, altura: 47 m

Observação actual do tempo

O boletim foi feito há 44 minutos, às 20:29 UTC
Vento 19 kt de es-nordeste com rajadas de 25 kt
Temperatura 8°C
Humidade 100%
Pressão 1012 hPa
Visibilidade: 11.3 km
Nuvens dispersasa uma altura de 1000 ft
Nuvens fragmentadasa uma altura de 1400 ft
Encobertoa uma altura de 3400 ft

METAR: PAVC 172029Z AUTO 07019G25KT 7SM SCT010 BKN014 OVC034 08/08 A2987 RMK AO2 PK WND 06030/2005

Hora: 13:13 (21:13 UTC)


TAF: em falta

Observações e previsões do tempo de mais de 4000 aeroportos (mensagens METAR e TAF).

As estações disponíveis são os pontos amarelos e vermelhos sobre o mapa.

Mova o rato sobre o mapa para ver o nome da estação.

Depois clique no ponto para visualizar as observações e previsões meteorológicas.

Para alterar o mapa : clique nos botões verdes com uma cruz preta para aumentar o zoom; no botão verde com uma pitada de zoom; ou nas setas verdes para mapas adjacentes.


METAR-TAF: